createdAt,value
2022-10-12T00:01:12.102Z,89.28
2022-10-12T00:03:39.236Z,89.44
2022-10-12T00:06:15.008Z,89.61
2022-10-12T00:08:43.034Z,89.01
2022-10-12T00:11:13.989Z,89.94
2022-10-12T00:13:41.593Z,90.31
2022-10-12T00:16:10.618Z,89.91
2022-10-12T00:18:37.881Z,90.15
2022-10-12T00:21:15.506Z,90.19
2022-10-12T00:23:43.620Z,89.91
2022-10-12T00:26:19.800Z,89.90
2022-10-12T00:28:46.835Z,90.03
2022-10-12T00:31:16.960Z,90.15
2022-10-12T00:33:43.979Z,90.08
2022-10-12T00:36:24.352Z,89.87
2022-10-12T00:38:52.989Z,89.58
2022-10-12T00:41:22.767Z,89.59
2022-10-12T00:43:55.334Z,89.89
2022-10-12T00:46:41.054Z,89.88
2022-10-12T00:49:24.651Z,89.76
2022-10-12T00:51:58.936Z,89.56
2022-10-12T00:54:37.744Z,89.55
2022-10-12T00:57:05.990Z,89.26
2022-10-12T00:59:36.452Z,89.57
2022-10-12T01:02:03.014Z,89.70
2022-10-12T01:04:31.614Z,89.71
2022-10-12T01:06:59.001Z,89.81
2022-10-12T01:09:27.503Z,89.96
2022-10-12T01:11:54.043Z,89.93
2022-10-12T01:14:20.537Z,90.40
2022-10-12T01:16:54.548Z,90.44
2022-10-12T01:19:42.481Z,90.14
2022-10-12T01:22:15.658Z,90.12
2022-10-12T01:24:54.321Z,89.98
2022-10-12T01:27:39.539Z,90.55
2022-10-12T01:30:07.740Z,90.42
2022-10-12T01:33:14.370Z,90.89
2022-10-12T01:35:53.122Z,91.11
2022-10-12T01:38:49.662Z,91.02
2022-10-12T01:41:27.423Z,90.73
2022-10-12T01:43:54.026Z,90.72
2022-10-12T01:46:20.477Z,90.79
2022-10-12T01:48:50.174Z,90.88
2022-10-12T01:51:24.792Z,90.75
2022-10-12T01:54:00.834Z,91.05
2022-10-12T01:56:42.405Z,90.85
2022-10-12T01:59:36.303Z,91.13
2022-10-12T02:02:24.422Z,91.09
2022-10-12T02:05:38.623Z,91.09
2022-10-12T02:08:25.670Z,91.00
2022-10-12T02:11:06.145Z,91.49
2022-10-12T02:13:36.880Z,91.97
2022-10-12T02:16:07.761Z,91.53
2022-10-12T02:18:36.873Z,91.31
2022-10-12T02:21:04.410Z,91.30
2022-10-12T02:23:30.961Z,91.43
2022-10-12T02:26:00.104Z,91.71
2022-10-12T02:28:30.460Z,91.78
2022-10-12T02:31:20.802Z,91.74
2022-10-12T02:34:33.624Z,91.74
2022-10-12T02:37:09.772Z,91.67
2022-10-12T02:39:47.934Z,91.78
2022-10-12T02:42:23.607Z,92.09
2022-10-12T02:44:53.873Z,92.24
2022-10-12T02:47:24.583Z,92.39
2022-10-12T02:49:53.344Z,92.39
2022-10-12T02:52:19.897Z,93.00
2022-10-12T02:54:46.557Z,93.00
2022-10-12T02:57:13.053Z,93.68
2022-10-12T02:59:39.556Z,93.77
2022-10-12T03:02:06.027Z,93.48
2022-10-12T03:04:32.622Z,93.65
2022-10-12T03:06:59.088Z,93.60
2022-10-12T03:09:25.565Z,94.05
2022-10-12T03:11:52.019Z,93.75
2022-10-12T03:14:18.504Z,93.42
2022-10-12T03:16:48.266Z,93.74
2022-10-12T03:19:15.328Z,94.28
2022-10-12T03:21:41.833Z,95.09
2022-10-12T03:24:08.386Z,95.39
2022-10-12T03:26:34.989Z,95.20
2022-10-12T03:29:01.452Z,94.80
2022-10-12T03:31:27.931Z,94.91
2022-10-12T03:33:54.426Z,94.72
2022-10-12T03:36:20.922Z,94.50
2022-10-12T03:38:47.453Z,94.46
2022-10-12T03:41:13.895Z,94.18
2022-10-12T03:43:40.426Z,93.59
2022-10-12T03:46:06.865Z,93.96
2022-10-12T03:48:33.404Z,94.10
2022-10-12T03:51:00.053Z,93.80
2022-10-12T03:53:26.573Z,94.07
2022-10-12T03:55:53.000Z,94.10
2022-10-12T03:58:19.473Z,93.56
2022-10-12T04:00:46.164Z,93.78
2022-10-12T04:03:12.666Z,94.50
2022-10-12T04:05:40.050Z,94.47
2022-10-12T04:08:06.533Z,93.99
2022-10-12T04:10:33.101Z,93.69
2022-10-12T04:12:59.639Z,93.70
2022-10-12T04:15:26.200Z,93.61
2022-10-12T04:17:53.308Z,93.61
2022-10-12T04:20:19.766Z,93.45
2022-10-12T04:22:46.285Z,93.48
2022-10-12T04:25:12.797Z,93.58
2022-10-12T04:27:39.810Z,93.46
2022-10-12T04:30:07.092Z,94.03
2022-10-12T04:32:33.586Z,93.94
2022-10-12T04:35:00.077Z,94.08
2022-10-12T04:37:28.050Z,93.54
2022-10-12T04:39:54.698Z,93.25
2022-10-12T04:42:21.253Z,93.19
2022-10-12T04:44:47.739Z,93.38
2022-10-12T04:47:14.191Z,93.97
2022-10-12T04:49:40.805Z,94.08
2022-10-12T04:52:07.274Z,93.75
2022-10-12T04:54:33.918Z,93.82
2022-10-12T04:57:00.427Z,94.14
2022-10-12T04:59:27.656Z,93.97
2022-10-12T05:01:54.533Z,94.09
2022-10-12T05:04:21.272Z,94.49
2022-10-12T05:06:47.778Z,94.70
2022-10-12T05:09:16.866Z,94.44
2022-10-12T05:11:43.831Z,94.49
2022-10-12T05:14:10.482Z,94.23
2022-10-12T05:16:36.950Z,94.20
2022-10-12T05:19:03.391Z,94.39
2022-10-12T05:21:29.935Z,94.19
2022-10-12T05:23:56.402Z,94.56
2022-10-12T05:26:22.886Z,94.51
2022-10-12T05:28:49.522Z,94.15
2022-10-12T05:31:16.091Z,94.39
2022-10-12T05:33:42.537Z,94.66
2022-10-12T05:36:09.336Z,94.64
2022-10-12T05:38:35.800Z,94.88
2022-10-12T05:41:02.280Z,94.61
2022-10-12T05:43:28.880Z,94.94
2022-10-12T05:45:55.536Z,94.49
2022-10-12T05:48:22.127Z,94.48
2022-10-12T05:50:48.710Z,94.61
2022-10-12T05:53:15.218Z,94.86
2022-10-12T05:55:52.031Z,94.85
2022-10-12T05:58:18.544Z,94.52
2022-10-12T06:00:44.996Z,94.65
2022-10-12T06:03:11.463Z,94.39
2022-10-12T06:05:37.947Z,94.75
2022-10-12T06:08:04.839Z,94.33
2022-10-12T06:10:32.166Z,94.44
2022-10-12T06:12:58.777Z,94.26
2022-10-12T06:15:25.268Z,94.57
2022-10-12T06:17:51.747Z,94.65
2022-10-12T06:20:18.211Z,94.51
2022-10-12T06:22:44.711Z,94.35
2022-10-12T06:25:11.194Z,94.57
2022-10-12T06:27:37.683Z,95.19
2022-10-12T06:30:04.928Z,94.91
2022-10-12T06:32:31.387Z,95.33
2022-10-12T06:34:57.940Z,95.38
2022-10-12T06:37:48.626Z,95.45
2022-10-12T06:40:11.463Z,95.23
2022-10-12T06:42:38.109Z,95.45
2022-10-12T06:45:05.123Z,96.27
2022-10-12T06:47:31.578Z,97.26
2022-10-12T06:49:58.097Z,97.60
2022-10-12T06:52:24.615Z,97.15
2022-10-12T06:54:51.078Z,97.39
2022-10-12T06:57:17.532Z,98.56
2022-10-12T06:59:44.003Z,98.57
2022-10-12T07:02:13.361Z,98.22
2022-10-12T07:04:39.831Z,97.80
2022-10-12T07:07:06.404Z,98.13
2022-10-12T07:09:33.054Z,97.76
2022-10-12T07:11:59.565Z,97.24
2022-10-12T07:14:26.062Z,97.27
2022-10-12T07:16:55.247Z,96.54
2022-10-12T07:19:22.135Z,96.02
2022-10-12T07:21:48.705Z,96.18
2022-10-12T07:24:15.306Z,98.03
2022-10-12T07:26:41.796Z,100.00
2022-10-12T07:29:08.370Z,100.00
2022-10-12T07:31:34.869Z,100.00
2022-10-12T07:34:01.343Z,100.00
2022-10-12T07:36:47.262Z,100.00
2022-10-12T07:39:17.205Z,100.00
2022-10-12T07:41:43.868Z,100.00
2022-10-12T07:44:10.825Z,100.00
2022-10-12T07:46:37.648Z,100.00
2022-10-12T07:49:04.579Z,100.00
2022-10-12T07:51:31.388Z,100.00
2022-10-12T07:54:00.149Z,100.00
2022-10-12T07:56:27.058Z,100.00
2022-10-12T07:58:55.474Z,100.00
2022-10-12T08:01:24.688Z,100.00
2022-10-12T08:03:51.927Z,99.78
2022-10-12T08:06:21.437Z,99.77
2022-10-12T08:08:48.771Z,99.53
2022-10-12T08:11:16.226Z,99.21
2022-10-12T08:13:43.169Z,98.25
2022-10-12T08:16:14.990Z,97.41
2022-10-12T08:18:41.507Z,95.96
2022-10-12T08:21:09.388Z,93.86
2022-10-12T08:23:37.054Z,93.00
2022-10-12T08:26:04.525Z,92.64
2022-10-12T08:28:31.159Z,92.57
2022-10-12T08:30:58.129Z,93.18
2022-10-12T08:33:24.675Z,92.99
2022-10-12T08:35:51.317Z,92.71
2022-10-12T08:38:17.878Z,92.62
2022-10-12T08:41:10.958Z,90.16
2022-10-12T08:44:11.713Z,90.32
2022-10-12T08:46:38.436Z,89.36
2022-10-12T08:49:15.325Z,89.37
2022-10-12T08:51:52.697Z,89.03
2022-10-12T08:54:22.482Z,88.58
2022-10-12T08:56:51.472Z,87.96
2022-10-12T08:59:19.080Z,88.50
2022-10-12T09:01:54.514Z,87.69
2022-10-12T09:04:36.133Z,87.75
2022-10-12T09:07:15.343Z,85.99
2022-10-12T09:09:56.857Z,85.43
2022-10-12T09:12:45.110Z,86.20
2022-10-12T09:15:19.950Z,85.00
2022-10-12T09:17:53.281Z,84.31
2022-10-12T09:20:19.906Z,85.17
2022-10-12T09:22:56.518Z,86.49
2022-10-12T09:25:28.244Z,85.61
2022-10-12T09:28:06.741Z,84.71
2022-10-12T09:30:37.762Z,83.97
2022-10-12T09:33:16.119Z,83.83
2022-10-12T09:35:45.066Z,83.56
2022-10-12T09:38:12.168Z,83.20
2022-10-12T09:40:39.654Z,82.74
2022-10-12T09:43:07.464Z,81.32
2022-10-12T09:45:35.163Z,82.37
2022-10-12T09:48:15.796Z,80.40
2022-10-12T09:50:54.318Z,80.99
2022-10-12T09:53:33.705Z,80.53
2022-10-12T09:56:05.663Z,80.44
2022-10-12T09:58:41.574Z,79.56
2022-10-12T10:01:16.563Z,79.13
2022-10-12T10:03:45.323Z,77.38
2022-10-12T10:06:11.974Z,76.00
2022-10-12T10:08:44.859Z,76.10
2022-10-12T10:11:16.853Z,75.44
2022-10-12T10:13:48.102Z,75.57
2022-10-12T10:16:14.832Z,74.14
2022-10-12T10:18:51.015Z,73.91
2022-10-12T10:21:39.559Z,73.17
2022-10-12T10:24:20.833Z,73.25
2022-10-12T10:27:03.547Z,73.30
2022-10-12T10:29:35.381Z,73.06
2022-10-12T10:32:24.226Z,71.94
2022-10-12T10:35:21.920Z,70.61
2022-10-12T10:37:51.472Z,69.81
2022-10-12T10:40:22.612Z,70.42
2022-10-12T10:42:55.546Z,71.16
2022-10-12T10:45:35.466Z,69.96
2022-10-12T10:48:16.601Z,70.06
2022-10-12T10:50:50.823Z,69.29
2022-10-12T10:53:23.978Z,68.55
2022-10-12T10:56:14.222Z,68.28
2022-10-12T10:58:47.658Z,67.78
2022-10-12T11:01:35.305Z,68.79
2022-10-12T11:04:12.127Z,67.45
2022-10-12T11:06:44.686Z,66.54
2022-10-12T11:09:15.841Z,65.63
2022-10-12T11:11:44.278Z,66.11
2022-10-12T11:14:20.667Z,65.97
2022-10-12T11:17:01.040Z,65.53
2022-10-12T11:19:39.427Z,65.59
2022-10-12T11:22:15.342Z,64.90
2022-10-12T11:24:54.479Z,65.12
2022-10-12T11:27:39.493Z,64.39
2022-10-12T11:30:26.413Z,65.71
2022-10-12T11:33:22.267Z,65.49
2022-10-12T11:35:49.708Z,64.79
2022-10-12T11:38:52.455Z,65.11
2022-10-12T11:41:36.100Z,63.49
2022-10-12T11:44:20.791Z,64.35
2022-10-12T11:46:54.321Z,62.86
2022-10-12T11:49:29.190Z,64.19
2022-10-12T11:51:59.645Z,63.23
2022-10-12T11:54:31.780Z,63.63
2022-10-12T11:57:05.936Z,63.80
2022-10-12T11:59:59.123Z,62.71
2022-10-12T12:02:42.889Z,63.80
2022-10-12T12:05:16.729Z,63.17
2022-10-12T12:07:51.024Z,62.76
2022-10-12T12:10:26.590Z,62.41
2022-10-12T12:13:14.952Z,61.91
2022-10-12T12:15:47.436Z,62.29
2022-10-12T12:18:44.380Z,62.29
2022-10-12T12:21:11.127Z,61.70
2022-10-12T12:23:43.706Z,61.78
2022-10-12T12:26:15.593Z,61.05
2022-10-12T12:28:51.831Z,61.65
2022-10-12T12:31:27.700Z,60.90
2022-10-12T12:34:17.268Z,60.95
2022-10-12T12:36:46.402Z,60.63
2022-10-12T12:39:27.470Z,60.09
2022-10-12T12:42:02.292Z,59.82
2022-10-12T12:44:36.682Z,60.31
2022-10-12T12:47:08.604Z,60.24
2022-10-12T12:49:51.692Z,60.01
2022-10-12T12:52:24.232Z,60.32
2022-10-12T12:55:18.550Z,60.67
2022-10-12T12:58:03.680Z,61.75
2022-10-12T13:00:38.260Z,60.97
2022-10-12T13:03:31.064Z,60.91
2022-10-12T13:06:25.122Z,59.83
2022-10-12T13:09:21.353Z,61.14
2022-10-12T13:12:26.002Z,62.37
2022-10-12T13:15:18.747Z,61.58
2022-10-12T13:18:23.148Z,60.78
2022-10-12T13:20:55.943Z,60.71
2022-10-12T13:23:26.166Z,60.39
2022-10-12T13:25:57.449Z,61.19
2022-10-12T13:28:31.443Z,60.84
2022-10-12T13:31:04.281Z,60.92
2022-10-12T13:33:39.054Z,61.57
2022-10-12T13:36:11.108Z,60.54
2022-10-12T13:38:40.448Z,60.15
2022-10-12T13:41:16.648Z,59.89
2022-10-12T13:43:50.244Z,60.59
2022-10-12T13:46:35.527Z,60.47
2022-10-12T13:49:03.713Z,60.58
2022-10-12T13:51:31.414Z,61.09
2022-10-12T13:53:58.202Z,61.13
2022-10-12T13:56:28.166Z,61.02
2022-10-12T13:59:00.333Z,62.16
2022-10-12T14:01:27.058Z,61.79
2022-10-12T14:04:02.993Z,63.14
2022-10-12T14:06:35.308Z,64.07
2022-10-12T14:09:18.276Z,64.63
2022-10-12T14:11:46.590Z,65.42
2022-10-12T14:14:35.141Z,65.01
2022-10-12T14:17:02.279Z,65.04
2022-10-12T14:19:45.340Z,65.07
2022-10-12T14:22:18.633Z,64.98
2022-10-12T14:24:45.168Z,65.56
2022-10-12T14:27:24.505Z,65.89
2022-10-12T14:29:56.705Z,65.06
2022-10-12T14:32:23.130Z,65.16
2022-10-12T14:35:03.355Z,64.74
2022-10-12T14:37:31.029Z,64.75
2022-10-12T14:40:00.908Z,64.38
2022-10-12T14:42:34.107Z,64.56
2022-10-12T14:45:02.098Z,64.68
2022-10-12T14:47:37.486Z,66.13
2022-10-12T14:50:08.260Z,65.88
2022-10-12T14:52:45.026Z,66.57
2022-10-12T14:55:32.312Z,65.89
2022-10-12T14:57:59.768Z,66.21
2022-10-12T15:00:32.054Z,66.24
2022-10-12T15:02:59.249Z,66.34
2022-10-12T15:05:29.027Z,67.12
2022-10-12T15:07:55.482Z,68.61
2022-10-12T15:10:23.764Z,69.86
2022-10-12T15:12:51.440Z,69.62
2022-10-12T15:15:39.467Z,69.02
2022-10-12T15:18:06.607Z,68.90
2022-10-12T15:20:36.402Z,70.20
2022-10-12T15:23:03.221Z,70.71
2022-10-12T15:25:35.569Z,71.58
2022-10-12T15:28:03.027Z,70.55
2022-10-12T15:30:29.926Z,69.78
2022-10-12T15:32:56.433Z,71.28
2022-10-12T15:35:25.798Z,70.98
2022-10-12T15:37:52.625Z,70.18
2022-10-12T15:40:20.584Z,70.05
2022-10-12T15:42:47.469Z,69.96
2022-10-12T15:45:19.399Z,69.83
2022-10-12T15:47:49.897Z,69.80
2022-10-12T15:50:18.018Z,70.54
2022-10-12T15:52:45.055Z,70.24
2022-10-12T15:55:16.211Z,69.72
2022-10-12T15:57:43.027Z,71.13
2022-10-12T16:00:11.096Z,71.05
2022-10-12T16:02:37.801Z,71.22
2022-10-12T16:05:06.727Z,72.11
2022-10-12T16:07:33.183Z,72.20
2022-10-12T16:09:59.671Z,73.04
2022-10-12T16:12:26.135Z,73.47
2022-10-12T16:14:52.622Z,74.42
2022-10-12T16:17:19.060Z,75.08
2022-10-12T16:19:45.747Z,77.00
2022-10-12T16:22:12.219Z,79.13
2022-10-12T16:24:38.720Z,80.29
2022-10-12T16:27:05.242Z,81.65
2022-10-12T16:29:31.741Z,81.26
2022-10-12T16:31:58.208Z,81.09
2022-10-12T16:34:24.681Z,81.26
2022-10-12T16:36:53.151Z,81.81
2022-10-12T16:39:19.694Z,82.34
2022-10-12T16:41:46.179Z,82.74
2022-10-12T16:44:12.673Z,84.28
2022-10-12T16:46:39.420Z,85.19
2022-10-12T16:49:05.908Z,85.81
2022-10-12T16:51:32.455Z,85.55
2022-10-12T16:53:59.281Z,85.95
2022-10-12T16:56:25.810Z,86.38
2022-10-12T16:58:52.620Z,86.42
2022-10-12T17:01:19.178Z,86.70
2022-10-12T17:03:45.671Z,87.08
2022-10-12T17:06:12.209Z,87.45
2022-10-12T17:08:41.739Z,87.40
2022-10-12T17:11:10.864Z,87.19
2022-10-12T17:13:38.457Z,87.07
2022-10-12T17:16:25.684Z,87.33
2022-10-12T17:18:56.804Z,87.45
2022-10-12T17:21:25.625Z,87.15
2022-10-12T17:23:55.196Z,87.22
2022-10-12T17:26:21.750Z,87.21
2022-10-12T17:28:48.287Z,87.20
2022-10-12T17:31:14.942Z,87.50
2022-10-12T17:33:41.422Z,88.17
2022-10-12T17:36:10.603Z,88.05
2022-10-12T17:38:37.370Z,88.49
2022-10-12T17:41:05.140Z,88.05
2022-10-12T17:43:32.071Z,87.96
2022-10-12T17:45:59.072Z,88.23
2022-10-12T17:48:25.597Z,88.35
2022-10-12T17:50:52.102Z,87.95
2022-10-12T17:53:18.638Z,87.90
2022-10-12T17:55:48.621Z,88.25
2022-10-12T17:58:15.741Z,88.21
2022-10-12T18:00:42.365Z,88.27
2022-10-12T18:03:08.920Z,88.50
2022-10-12T18:05:35.439Z,88.66
2022-10-12T18:08:01.994Z,88.57
2022-10-12T18:10:28.753Z,88.67
2022-10-12T18:12:55.451Z,88.93
2022-10-12T18:15:23.102Z,89.34
2022-10-12T18:17:50.588Z,89.08
2022-10-12T18:20:18.695Z,89.23
2022-10-12T18:22:45.244Z,89.38
2022-10-12T18:25:11.781Z,89.48
2022-10-12T18:27:38.321Z,89.73
2022-10-12T18:30:05.363Z,89.66
2022-10-12T18:32:31.868Z,90.21
2022-10-12T18:34:58.462Z,90.59
2022-10-12T18:37:25.032Z,90.68
2022-10-12T18:39:51.568Z,90.81
2022-10-12T18:42:18.326Z,90.53
2022-10-12T18:44:45.134Z,90.82
2022-10-12T18:47:11.618Z,90.97
2022-10-12T18:49:38.288Z,91.53
2022-10-12T18:52:05.101Z,91.86
2022-10-12T18:54:31.692Z,91.96
2022-10-12T18:56:58.182Z,91.53
2022-10-12T18:59:24.692Z,91.52
2022-10-12T19:01:51.371Z,91.64
2022-10-12T19:04:18.009Z,92.12
2022-10-12T19:06:45.089Z,92.35
2022-10-12T19:09:13.693Z,92.61
2022-10-12T19:11:40.716Z,92.57
2022-10-12T19:14:15.812Z,92.69
2022-10-12T19:16:43.887Z,93.16
2022-10-12T19:19:20.766Z,92.68
2022-10-12T19:21:49.424Z,93.23
2022-10-12T19:24:16.268Z,93.03
2022-10-12T19:26:43.755Z,92.66
2022-10-12T19:29:12.919Z,92.65
2022-10-12T19:31:44.399Z,92.51
2022-10-12T19:34:14.255Z,92.36
2022-10-12T19:36:41.836Z,92.36
2022-10-12T19:39:12.307Z,92.23
2022-10-12T19:41:42.410Z,92.50
2022-10-12T19:44:11.265Z,92.47
2022-10-12T19:46:38.990Z,93.01
2022-10-12T19:49:05.704Z,93.62
2022-10-12T19:51:32.861Z,93.10
2022-10-12T19:54:01.825Z,93.19
2022-10-12T19:56:28.689Z,93.70
2022-10-12T19:58:59.186Z,93.76
2022-10-12T20:01:28.501Z,94.35
2022-10-12T20:03:55.913Z,94.45
2022-10-12T20:06:25.250Z,94.33
2022-10-12T20:08:53.753Z,94.32
2022-10-12T20:11:24.509Z,94.41
2022-10-12T20:13:52.159Z,94.83
2022-10-12T20:16:20.099Z,95.49
2022-10-12T20:18:46.717Z,95.46
2022-10-12T20:21:16.281Z,95.72
2022-10-12T20:23:43.631Z,95.85
2022-10-12T20:26:16.971Z,96.12
2022-10-12T20:28:49.387Z,95.69
2022-10-12T20:31:17.486Z,95.58
2022-10-12T20:33:44.264Z,95.40
2022-10-12T20:36:18.489Z,95.37
2022-10-12T20:38:44.962Z,95.42
2022-10-12T20:41:13.285Z,95.51
2022-10-12T20:43:40.782Z,95.75
2022-10-12T20:46:10.882Z,96.38
2022-10-12T20:48:39.660Z,96.21
2022-10-12T20:51:10.516Z,96.78
2022-10-12T20:53:37.902Z,96.60
2022-10-12T20:56:06.299Z,96.78
2022-10-12T20:58:32.813Z,96.52
2022-10-12T21:01:07.588Z,96.50
2022-10-12T21:03:34.905Z,96.54
2022-10-12T21:06:03.663Z,96.80
2022-10-12T21:08:30.374Z,97.27
2022-10-12T21:10:57.154Z,96.77
2022-10-12T21:13:23.687Z,96.92
2022-10-12T21:15:54.234Z,96.83
2022-10-12T21:18:21.693Z,96.57
2022-10-12T21:20:59.203Z,96.84
2022-10-12T21:23:26.156Z,97.05
2022-10-12T21:25:53.223Z,97.41
2022-10-12T21:28:20.703Z,97.53
2022-10-12T21:30:47.633Z,97.35
2022-10-12T21:33:16.646Z,97.17
2022-10-12T21:35:43.594Z,97.09
2022-10-12T21:38:10.600Z,97.36
2022-10-12T21:40:40.541Z,98.05
2022-10-12T21:43:06.993Z,97.34
2022-10-12T21:45:34.348Z,98.67
2022-10-12T21:48:00.957Z,98.90
2022-10-12T21:50:28.391Z,99.36
2022-10-12T21:53:00.067Z,99.17
2022-10-12T21:55:26.783Z,99.77
2022-10-12T21:57:53.208Z,98.74
2022-10-12T22:00:19.709Z,98.69
2022-10-12T22:02:46.143Z,98.80
2022-10-12T22:05:12.659Z,98.70
2022-10-12T22:07:41.800Z,98.65
2022-10-12T22:10:10.742Z,99.89
2022-10-12T22:12:38.221Z,100.00
2022-10-12T22:15:05.463Z,100.00
2022-10-12T22:17:31.905Z,100.00
2022-10-12T22:19:58.378Z,100.00
2022-10-12T22:22:24.873Z,100.00
2022-10-12T22:24:51.375Z,100.00
2022-10-12T22:27:20.391Z,100.00
2022-10-12T22:29:46.891Z,100.00
2022-10-12T22:32:13.358Z,100.00
2022-10-12T22:34:39.845Z,100.00
2022-10-12T22:37:06.321Z,100.00
2022-10-12T22:39:32.797Z,100.00
2022-10-12T22:41:59.237Z,100.00
2022-10-12T22:44:25.933Z,100.00
2022-10-12T22:46:52.371Z,100.00
2022-10-12T22:49:18.882Z,100.00
2022-10-12T22:51:45.493Z,100.00
2022-10-12T22:54:13.343Z,100.00
2022-10-12T22:56:40.645Z,100.00
2022-10-12T22:59:07.245Z,100.00
2022-10-12T23:01:35.071Z,100.00
2022-10-12T23:04:01.592Z,100.00
2022-10-12T23:06:28.102Z,100.00
2022-10-12T23:08:54.649Z,100.00
2022-10-12T23:11:24.103Z,100.00
2022-10-12T23:13:51.033Z,100.00
2022-10-12T23:16:29.361Z,100.00
2022-10-12T23:19:00.925Z,100.00
2022-10-12T23:21:29.444Z,100.00
2022-10-12T23:23:56.428Z,100.00
2022-10-12T23:26:25.133Z,100.00
2022-10-12T23:28:52.874Z,100.00
2022-10-12T23:31:22.004Z,100.00
2022-10-12T23:33:48.855Z,100.00
2022-10-12T23:36:17.491Z,100.00
2022-10-12T23:38:44.947Z,100.00
2022-10-12T23:41:14.785Z,100.00
2022-10-12T23:43:41.607Z,100.00
2022-10-12T23:46:10.187Z,100.00
2022-10-12T23:48:36.709Z,100.00
2022-10-12T23:51:06.873Z,100.00
2022-10-12T23:53:33.713Z,100.00
2022-10-12T23:56:00.232Z,100.00
2022-10-12T23:58:26.666Z,100.00
